GOGS

Details ICAO GOGS (CSK)
Name CAP SKIRING
Region Senegal
Timezone Africa/Dakar (UTC+0.0)
Plans Departing 0
Arriving 4
Stats Elevation 52 ft / 16 m (AMSL)
Location 12.393531° -16.746124°
Runways 1
Magnetic Variation 7.580° W
Sunrise 2017-12-12 07:19:57 UTC / 2017-12-12 07:19:57 Local
Sunset 2017-12-12 18:44:23 UTC / 2017-12-12 18:44:23 Local
Advertisement - Login to hide

Runways

ID Width Length Bearing (true) Bearing (mag) Surface Threshold Offset Overrun Length
15 98 ft / 30 m 4,766 ft / 1,453 m 135.55° 143.13° Asphalt 0 ft / 0 m 820 ft / 250 m
33 98 ft / 30 m 4,766 ft / 1,453 m 315.56° 323.14° Asphalt 0 ft / 0 m 0 ft / 0 m

Map

Weather


0- 5 10 15 20 25 30 35+ Temperature / ° C

Clouds and Precipitation
Forecast for 2017-12-12 06:00 UTC. Updated 2 hours ago

Ground ~20,000 ft ~40,000 ft Winds

METAR

Not found

TAF

TAF GOGS 112330Z 1200/1224 35006KT 8000 NSC

Frequencies

Tower 118.90 MHz TWR
Warning: Do not use this data for real-world aviation or navigation. No guarantee of current accuracy is given.